createdAt,value
2023-03-10T20:03:56.886Z,10.07
2023-03-10T20:06:24.721Z,8.60
2023-03-10T20:08:52.100Z,8.40
2023-03-10T20:11:19.823Z,8.77
2023-03-10T20:13:47.510Z,7.85
2023-03-10T20:16:15.390Z,8.18
2023-03-10T20:18:42.753Z,7.97
2023-03-10T20:21:10.761Z,8.30
2023-03-10T20:23:38.355Z,8.48
2023-03-10T20:26:09.603Z,9.38
2023-03-10T20:28:37.381Z,8.15
2023-03-10T20:31:04.771Z,7.68
2023-03-10T20:33:32.122Z,10.02
2023-03-10T20:35:59.838Z,9.80
2023-03-10T20:38:27.290Z,7.80
2023-03-10T20:40:54.610Z,6.43
2023-03-10T20:43:22.191Z,5.75
2023-03-10T20:45:51.496Z,6.10
2023-03-10T20:48:18.975Z,4.70
2023-03-10T20:50:46.557Z,4.95
2023-03-10T20:53:13.864Z,4.43
2023-03-10T20:55:41.244Z,5.93
2023-03-10T20:58:08.870Z,8.45
2023-03-10T21:00:36.245Z,7.87
2023-03-10T21:03:03.590Z,7.10
2023-03-10T21:05:31.161Z,6.43
2023-03-10T21:07:58.512Z,6.43
2023-03-10T21:10:26.608Z,5.45
2023-03-10T21:12:54.238Z,6.03
2023-03-10T21:15:21.579Z,4.87
2023-03-10T21:17:48.986Z,5.15
2023-03-10T21:20:18.909Z,6.45
2023-03-10T21:22:46.449Z,5.00
2023-03-10T21:25:16.491Z,5.00
2023-03-10T21:27:46.763Z,4.93
2023-03-10T21:30:14.321Z,5.18
2023-03-10T21:32:41.672Z,7.65
2023-03-10T21:35:12.627Z,7.07
2023-03-10T21:37:46.707Z,7.40
2023-03-10T21:40:15.161Z,7.32
2023-03-10T21:42:42.536Z,6.57
2023-03-10T21:45:12.603Z,6.82
2023-03-10T21:47:40.225Z,6.20
2023-03-10T21:50:08.624Z,7.90
2023-03-10T21:52:36.200Z,8.05
2023-03-10T21:55:03.914Z,10.52
2023-03-10T21:57:31.239Z,9.07
2023-03-10T21:59:58.579Z,8.52
2023-03-10T22:02:28.154Z,8.60
2023-03-10T22:04:55.953Z,9.60
2023-03-10T22:07:23.349Z,8.68
2023-03-10T22:09:50.785Z,8.43
2023-03-10T22:12:18.630Z,7.25
2023-03-10T22:14:47.443Z,5.25
2023-03-10T22:17:14.856Z,4.62
2023-03-10T22:19:42.455Z,4.90
2023-03-10T22:22:09.816Z,3.87
2023-03-10T22:24:37.116Z,4.18
2023-03-10T22:27:05.602Z,4.32
2023-03-10T22:29:32.917Z,3.60
2023-03-10T22:32:00.294Z,4.72
2023-03-10T22:34:27.869Z,3.70
2023-03-10T22:36:55.225Z,3.75
2023-03-10T22:39:23.311Z,3.78
2023-03-10T22:41:50.935Z,4.12
2023-03-10T22:44:18.482Z,4.70
2023-03-10T22:46:46.619Z,3.47
2023-03-10T22:49:14.303Z,3.60
2023-03-10T22:51:41.732Z,4.18
2023-03-10T22:54:09.069Z,3.70
2023-03-10T22:56:36.641Z,3.78
2023-03-10T22:59:04.447Z,3.67
2023-03-10T23:01:31.896Z,3.55
2023-03-10T23:03:59.600Z,3.37
2023-03-10T23:06:29.197Z,3.25
2023-03-10T23:08:56.881Z,3.33
2023-03-10T23:11:24.539Z,3.65
2023-03-10T23:13:51.900Z,2.60
2023-03-10T23:16:19.856Z,2.00
2023-03-10T23:18:47.567Z,2.05
2023-03-10T23:21:14.898Z,2.12
2023-03-10T23:23:43.764Z,2.42
2023-03-10T23:26:11.614Z,2.05
2023-03-10T23:28:38.979Z,1.80
2023-03-10T23:31:06.914Z,2.20
2023-03-10T23:33:34.582Z,2.00
2023-03-10T23:36:01.916Z,1.95
2023-03-10T23:38:29.348Z,1.85
2023-03-10T23:40:56.991Z,1.83
2023-03-10T23:43:24.331Z,1.77
2023-03-10T23:45:51.758Z,2.12
2023-03-10T23:48:19.887Z,1.80
2023-03-10T23:50:47.608Z,2.00
2023-03-10T23:53:15.624Z,1.92
2023-03-10T23:55:44.488Z,2.15
2023-03-10T23:58:12.964Z,1.90
